Sayville, NY (11782)

7:26 AM EDT en Agosto 23, 2014 (GMT -0400)
KNYSAYVI4 | Change Station
CLOSE
Current Station
Estación meteorológica personal
Location: Sayville, NY
Altura: 36 ft
Estaciones meteorológicas cercanas

Alt 36 ft 40.75 °N, 73.10 °W | Updated 2 seconds ago

Mostly Cloudy
Muy nublado
65.8 ° F
Sensación térmica 65.8 ° F
N
0.0
Viento Variable Viento desde NE
Gusts 6.0 mph

Hoy
Alta -- | Baja -- ° F
--% Posibilidad de precipitaciones
Ayer
Alta -- | Baja -- ° F
Precip. -- pul
6:10 AM 7:38 PM
Creciente menguante, 4% visible
Presión 30.06 pul
Visibilidad 10.0 Millas
Nubes Baja 2500 ft
Nubes dispersas 6000 ft
Muy nublado 13000 ft
Punto de rocío 63 ° F
Humedad 90%
Precipitaciones 0.00 pul
Espesor de la nieve No disponible.
UV 0 de una escala de 12
Polen 8.40 de una escala de 12
Ozono Buena
Flu Activity No disponible.
METAR KISP 231056Z 04007KT 10SM FEW025 SCT060 BKN130 18/16 A3006 RMK AO2 SLP177 T01830156

More Conditions Fewer Conditions

Presión 30.06 pul
Visibilidad 10.0 Millas
Nubes Baja 2500 ft
Nubes dispersas 6000 ft
Muy nublado 13000 ft
Punto de rocío 63 ° F
Humedad 90%
Precipitaciones 0.00 pul
Espesor de la nieve No disponible.
UV 0 de una escala de 12
Polen 8.40 de una escala de 12
Ozono Buena
Flu Activity No disponible.
METAR KISP 231056Z 04007KT 10SM FEW025 SCT060 BKN130 18/16 A3006 RMK AO2 SLP177 T01830156

More Conditions Fewer Conditions

10-Day Weather Forecast

Almanac

Astronomía

Aug. 23, 2014 Salida Puesta
Hora real 6:10 AM EDT 7:38 PM EDT
Crepúsculo civil 5:41 AM EDT 8:07 PM EDT
Crepúsculo náutico 5:07 AM EDT 8:41 PM EDT
Crepúsculo astronómico 4:30 AM EDT 9:18 PM EDT
Luna 4:23 AM EDT 6:21 PM EDT
Horas de luz 14h 25m
Horas de luz
13h 28m
Tomorrow will be 2m 30s shorter.
Creciente menguante, 4% of the Moon is Illuminated
Hoy
Creciente menguante
Ago 25
Nueva
Sep 2
Cuarto creciente
Sep 8
Luna llena
Sep 15
Cuarto menguante

Extremos de hoy

Máximos del estado Bajos del estado

Community

WunderPhotos

Upload Photos

1,746,418 ¡fotos cargadas!

WunderBlogs® & News

By Dr. Jeff Masters
Director of Meteorology, Weather Underground
By Kari Strenfel
Meteorologist, Weather Underground
By Christopher C. Burt
Weather Historian, Weather Underground
August 23, 2014
August 23, 2014
August 23, 2014

Nearby

Calidad del aire

  Calidad del aire Índice AQ Contaminante
Ayer Buena
OZONE
Real Buena
OZONE
Sábado Buena
OZONE
Sábado Buena
PM2.5
Domingo Buena
OZONE
Domingo Buena
PM2.5
Lunes Buena
OZONE
Lunes Buena
PM2.5

Grosos de nieve

Estación Profundido Altura
No tenemos constancia de nieve nueva.

Actividad de terremotos

Ciudad Distance Mag. Tiempo y dato
No hay informes recientes de la actividad sísmica.
Magnitud mínima muestra es 2,5.

Temperaturas de aguas costeras

Lugar Temperatura
Sin partes meteorológicos de las estaciones

Estaciones meteorológicas cercanas